createdAt,value
2022-10-22T00:02:21.589Z,3.00
2022-10-22T00:04:49.683Z,5.23
2022-10-22T00:07:17.930Z,6.00
2022-10-22T00:09:45.062Z,2.20
2022-10-22T00:12:12.313Z,6.30
2022-10-22T00:14:39.480Z,8.40
2022-10-22T00:17:08.253Z,4.23
2022-10-22T00:19:38.599Z,14.63
2022-10-22T00:22:06.185Z,3.13
2022-10-22T00:24:34.322Z,5.23
2022-10-22T00:27:01.760Z,3.97
2022-10-22T00:29:28.662Z,6.57
2022-10-22T00:34:27.766Z,4.00
2022-10-22T00:36:54.510Z,7.53
2022-10-22T00:39:23.608Z,7.07
2022-10-22T00:41:52.067Z,2.27
2022-10-22T00:44:56.620Z,5.90
2022-10-22T00:47:25.317Z,9.80
2022-10-22T00:49:53.404Z,4.50
2022-10-22T00:52:21.193Z,3.40
2022-10-22T00:54:47.938Z,6.83
2022-10-22T00:57:16.537Z,7.77
2022-10-22T00:59:43.363Z,3.77
2022-10-22T01:02:10.019Z,4.53
2022-10-22T01:04:36.808Z,7.97
2022-10-22T01:07:03.580Z,2.20
2022-10-22T01:09:45.445Z,3.50
2022-10-22T01:12:37.629Z,5.90
2022-10-22T01:15:29.237Z,13.43
2022-10-22T01:18:02.636Z,6.20
2022-10-22T01:20:51.125Z,4.87
2022-10-22T01:23:23.904Z,3.00
2022-10-22T01:26:08.887Z,3.87
2022-10-22T01:29:00.449Z,1.90
2022-10-22T01:31:33.178Z,3.40
2022-10-22T01:34:01.114Z,2.17
2022-10-22T01:36:31.665Z,3.23
2022-10-22T01:39:00.524Z,1.00
2022-10-22T01:41:30.941Z,4.37
2022-10-22T01:43:57.669Z,3.57
2022-10-22T01:46:26.738Z,2.17
2022-10-22T01:49:34.588Z,4.23
2022-10-22T01:52:26.671Z,1.87
2022-10-22T01:55:21.190Z,2.50
2022-10-22T01:57:59.960Z,2.30
2022-10-22T02:00:26.716Z,1.43
2022-10-22T02:03:00.475Z,4.47
2022-10-22T02:05:43.004Z,1.97
2022-10-22T02:08:13.653Z,1.77
2022-10-22T02:10:44.417Z,2.27
2022-10-22T02:13:18.103Z,0.60
2022-10-22T02:15:46.624Z,1.23
2022-10-22T02:18:15.596Z,3.63
2022-10-22T02:20:42.573Z,1.00
2022-10-22T02:23:11.049Z,2.20
2022-10-22T02:25:42.740Z,2.50
2022-10-22T02:28:42.274Z,1.10
2022-10-22T02:31:19.121Z,7.53
2022-10-22T02:33:48.805Z,2.67
2022-10-22T02:36:17.726Z,2.37
2022-10-22T02:38:46.669Z,1.87
2022-10-22T02:41:14.828Z,1.87
2022-10-22T02:43:43.658Z,1.20
2022-10-22T02:46:11.435Z,2.70
2022-10-22T02:48:38.313Z,2.20
2022-10-22T02:51:05.102Z,0.93
2022-10-22T02:53:32.177Z,2.77
2022-10-22T02:55:59.811Z,2.27
2022-10-22T02:58:26.440Z,3.60
2022-10-22T03:00:53.184Z,1.63
2022-10-22T03:03:19.924Z,3.07
2022-10-22T03:05:46.617Z,2.53
2022-10-22T03:08:13.275Z,0.87
2022-10-22T03:10:39.917Z,1.37
2022-10-22T03:13:06.581Z,0.63
2022-10-22T03:15:33.338Z,2.50
2022-10-22T03:18:00.034Z,0.60
2022-10-22T03:20:26.871Z,1.07
2022-10-22T03:22:53.549Z,2.37
2022-10-22T03:25:25.077Z,0.90
2022-10-22T03:27:56.100Z,1.33
2022-10-22T03:30:22.834Z,0.53
2022-10-22T03:32:49.485Z,2.30
2022-10-22T03:35:16.190Z,2.53
2022-10-22T03:37:43.051Z,3.13
2022-10-22T03:40:11.452Z,0.97
2022-10-22T03:42:38.365Z,1.77
2022-10-22T03:45:05.756Z,2.77
2022-10-22T03:47:32.426Z,2.57
2022-10-22T03:49:59.121Z,3.83
2022-10-22T03:52:25.778Z,1.37
2022-10-22T03:54:52.465Z,3.00
2022-10-22T03:57:19.126Z,1.47
2022-10-22T03:59:46.383Z,2.33
2022-10-22T04:02:13.909Z,2.17
2022-10-22T04:04:40.576Z,1.23
2022-10-22T04:07:07.888Z,0.83
2022-10-22T04:09:35.408Z,4.17
2022-10-22T04:12:02.780Z,1.60
2022-10-22T04:14:29.433Z,2.67
2022-10-22T04:16:56.085Z,2.00
2022-10-22T04:19:22.892Z,2.83
2022-10-22T04:21:49.600Z,1.20
2022-10-22T04:24:16.544Z,6.13
2022-10-22T04:26:43.268Z,3.17
2022-10-22T04:29:13.566Z,2.60
2022-10-22T04:31:42.829Z,4.60
2022-10-22T04:34:09.467Z,2.80
2022-10-22T04:36:36.210Z,4.87
2022-10-22T04:39:04.165Z,4.40
2022-10-22T04:41:33.773Z,5.13
2022-10-22T04:44:01.643Z,0.90
2022-10-22T04:46:30.529Z,4.40
2022-10-22T04:48:57.287Z,1.13
2022-10-22T04:51:25.420Z,2.50
2022-10-22T04:53:52.539Z,3.27
2022-10-22T04:56:22.556Z,1.43
2022-10-22T04:58:51.489Z,2.77
2022-10-22T05:01:21.366Z,1.80
2022-10-22T05:03:49.612Z,2.50
2022-10-22T05:06:17.263Z,5.73
2022-10-22T05:08:44.225Z,3.20
2022-10-22T05:11:19.697Z,6.00
2022-10-22T05:13:46.622Z,5.67
2022-10-22T05:16:13.930Z,7.10
2022-10-22T05:18:43.456Z,4.27
2022-10-22T05:21:17.917Z,1.77
2022-10-22T05:23:46.140Z,5.43
2022-10-22T05:26:15.071Z,2.87
2022-10-22T05:28:41.792Z,6.30
2022-10-22T05:31:11.483Z,2.27
2022-10-22T05:33:38.726Z,1.53
2022-10-22T05:36:07.652Z,8.87
2022-10-22T05:38:35.394Z,3.97
2022-10-22T05:41:07.052Z,2.90
2022-10-22T05:43:34.289Z,2.90
2022-10-22T05:46:09.656Z,2.50
2022-10-22T05:48:36.426Z,4.13
2022-10-22T05:51:05.456Z,0.97
2022-10-22T05:53:36.889Z,1.87
2022-10-22T05:56:08.839Z,2.97
2022-10-22T05:58:36.982Z,2.43
2022-10-22T06:01:09.283Z,1.77
2022-10-22T06:03:35.966Z,2.13
2022-10-22T06:06:07.165Z,6.37
2022-10-22T06:08:34.148Z,4.10
2022-10-22T06:11:01.095Z,7.93
2022-10-22T06:13:27.792Z,4.73
2022-10-22T06:15:54.549Z,3.60
2022-10-22T06:18:21.271Z,5.50
2022-10-22T06:20:48.034Z,5.10
2022-10-22T06:23:15.269Z,1.70
2022-10-22T06:25:42.519Z,1.97
2022-10-22T06:28:09.639Z,1.10
2022-10-22T06:30:41.834Z,2.40
2022-10-22T06:33:11.029Z,1.80
2022-10-22T06:35:37.790Z,3.67
2022-10-22T06:38:04.485Z,4.60
2022-10-22T06:40:31.184Z,3.93
2022-10-22T06:42:59.827Z,4.70
2022-10-22T06:45:26.672Z,3.17
2022-10-22T06:47:53.764Z,1.67
2022-10-22T06:50:20.500Z,2.30
2022-10-22T06:52:47.474Z,4.53
2022-10-22T06:55:14.248Z,4.33
2022-10-22T06:57:41.301Z,2.20
2022-10-22T07:00:08.867Z,2.63
2022-10-22T07:02:35.597Z,3.87
2022-10-22T07:05:02.300Z,1.93
2022-10-22T07:07:28.990Z,4.03
2022-10-22T07:09:55.616Z,4.40
2022-10-22T07:12:22.446Z,7.67
2022-10-22T07:14:49.807Z,6.43
2022-10-22T07:17:16.490Z,6.23
2022-10-22T07:19:44.032Z,7.80
2022-10-22T07:22:11.291Z,3.20
2022-10-22T07:24:37.997Z,8.30
2022-10-22T07:27:07.050Z,6.67
2022-10-22T07:29:36.386Z,2.53
2022-10-22T07:32:03.485Z,9.23
2022-10-22T07:34:30.281Z,4.67
2022-10-22T07:36:57.221Z,10.20
2022-10-22T07:39:25.706Z,7.67
2022-10-22T07:41:53.153Z,11.57
2022-10-22T07:44:19.896Z,13.40
2022-10-22T07:46:48.862Z,9.03
2022-10-22T07:49:15.831Z,4.63
2022-10-22T07:51:42.693Z,7.90
2022-10-22T07:54:09.442Z,6.33
2022-10-22T07:56:36.147Z,4.87
2022-10-22T08:01:34.576Z,2.53
2022-10-22T08:04:01.362Z,9.50
2022-10-22T08:06:28.093Z,3.30
2022-10-22T08:08:54.782Z,2.63
2022-10-22T08:11:21.812Z,1.17
2022-10-22T08:13:48.466Z,2.83
2022-10-22T08:16:15.357Z,1.20
2022-10-22T08:18:42.337Z,3.00
2022-10-22T08:21:09.224Z,3.03
2022-10-22T08:23:36.035Z,0.50
2022-10-22T08:26:03.099Z,0.90
2022-10-22T08:28:31.188Z,2.13
2022-10-22T08:30:57.982Z,2.27
2022-10-22T08:33:24.879Z,2.43
2022-10-22T08:35:52.691Z,5.83
2022-10-22T08:38:20.259Z,2.17
2022-10-22T08:40:51.520Z,1.70
2022-10-22T08:43:46.324Z,4.10
2022-10-22T08:46:26.871Z,1.60
2022-10-22T08:48:57.331Z,2.87
2022-10-22T08:51:32.832Z,2.67
2022-10-22T08:54:37.812Z,2.80
2022-10-22T08:57:42.282Z,2.20
2022-10-22T09:00:44.145Z,1.43
2022-10-22T09:03:27.066Z,4.40
2022-10-22T09:06:09.920Z,1.83
2022-10-22T09:08:38.873Z,0.93
2022-10-22T09:11:11.452Z,2.97
2022-10-22T09:13:40.139Z,1.37
2022-10-22T09:16:12.628Z,3.00
2022-10-22T09:19:00.248Z,0.97
2022-10-22T09:21:48.536Z,0.97
2022-10-22T09:24:39.918Z,1.70
2022-10-22T09:27:27.499Z,1.20
2022-10-22T09:29:54.271Z,2.23
2022-10-22T09:32:21.007Z,2.27
2022-10-22T09:34:49.895Z,1.77
2022-10-22T09:37:19.009Z,2.53
2022-10-22T09:39:50.850Z,3.47
2022-10-22T09:42:19.745Z,2.03
2022-10-22T09:44:59.712Z,2.97
2022-10-22T09:47:43.530Z,2.60
2022-10-22T09:50:44.220Z,2.23
2022-10-22T09:53:29.027Z,0.80
2022-10-22T09:55:59.198Z,4.33
2022-10-22T09:58:26.408Z,3.03
2022-10-22T10:01:02.021Z,4.10
2022-10-22T10:03:31.339Z,2.50
2022-10-22T10:06:04.762Z,2.33
2022-10-22T10:08:33.292Z,3.80
2022-10-22T10:11:05.633Z,5.53
2022-10-22T10:13:35.213Z,2.97
2022-10-22T10:16:41.126Z,3.80
2022-10-22T10:19:29.513Z,4.20
2022-10-22T10:22:24.108Z,3.37
2022-10-22T10:25:19.823Z,7.33
2022-10-22T10:27:56.336Z,4.37
2022-10-22T10:30:24.220Z,7.03
2022-10-22T10:33:12.598Z,3.80
2022-10-22T10:35:58.621Z,2.50
2022-10-22T10:38:48.699Z,2.13
2022-10-22T10:41:52.380Z,3.93
2022-10-22T10:44:30.431Z,3.03
2022-10-22T10:47:16.837Z,3.60
2022-10-22T10:49:43.974Z,2.73
2022-10-22T10:52:17.394Z,2.60
2022-10-22T10:54:54.827Z,3.87
2022-10-22T10:57:30.597Z,2.27
2022-10-22T11:00:09.777Z,5.27
2022-10-22T11:02:48.665Z,2.80
2022-10-22T11:05:30.905Z,2.20
2022-10-22T11:08:13.145Z,3.57
2022-10-22T11:10:41.893Z,5.20
2022-10-22T11:13:36.744Z,4.57
2022-10-22T11:16:19.543Z,3.27
2022-10-22T11:19:46.264Z,3.57
2022-10-22T11:22:19.931Z,3.07
2022-10-22T11:25:01.176Z,2.60
2022-10-22T11:27:39.252Z,5.30
2022-10-22T11:30:14.095Z,2.60
2022-10-22T11:32:43.897Z,3.53
2022-10-22T11:35:20.232Z,3.50
2022-10-22T11:37:51.495Z,4.53
2022-10-22T11:40:42.562Z,2.60
2022-10-22T11:43:11.954Z,3.47
2022-10-22T11:45:41.873Z,3.13
2022-10-22T11:48:19.243Z,5.00
2022-10-22T11:50:59.944Z,6.43
2022-10-22T11:53:38.736Z,3.60
2022-10-22T11:56:09.884Z,2.67
2022-10-22T11:58:44.648Z,4.07
2022-10-22T12:01:11.330Z,6.40
2022-10-22T12:03:41.100Z,5.80
2022-10-22T12:06:15.368Z,4.23
2022-10-22T12:09:00.638Z,6.10
2022-10-22T12:11:39.396Z,4.17
2022-10-22T12:14:26.421Z,5.13
2022-10-22T12:16:58.920Z,4.07
2022-10-22T12:19:39.199Z,7.37
2022-10-22T12:22:19.463Z,3.07
2022-10-22T12:24:49.499Z,4.30
2022-10-22T12:27:37.898Z,7.43
2022-10-22T12:30:26.074Z,2.23
2022-10-22T12:32:57.956Z,4.53
2022-10-22T12:35:27.393Z,5.23
2022-10-22T12:38:00.662Z,4.27
2022-10-22T12:40:35.258Z,3.27
2022-10-22T12:45:45.123Z,7.97
2022-10-22T12:48:19.418Z,3.17
2022-10-22T12:50:55.922Z,5.03
2022-10-22T12:53:45.361Z,2.07
2022-10-22T12:56:15.888Z,2.50
2022-10-22T12:58:51.950Z,4.27
2022-10-22T13:01:18.935Z,3.83
2022-10-22T13:04:06.726Z,4.93
2022-10-22T13:06:36.566Z,4.97
2022-10-22T13:09:25.326Z,4.47
2022-10-22T13:11:59.159Z,3.40
2022-10-22T13:14:25.773Z,4.23
2022-10-22T13:17:05.696Z,4.13
2022-10-22T13:19:53.425Z,4.27
2022-10-22T13:22:40.775Z,7.63
2022-10-22T13:25:13.726Z,3.80
2022-10-22T13:27:44.561Z,7.47
2022-10-22T13:30:27.898Z,6.17
2022-10-22T13:33:21.098Z,3.53
2022-10-22T13:35:47.966Z,4.23
2022-10-22T13:38:22.820Z,3.03
2022-10-22T13:40:50.113Z,3.17
2022-10-22T13:43:17.600Z,3.60
2022-10-22T13:45:46.282Z,4.07
2022-10-22T13:48:19.007Z,5.73
2022-10-22T13:50:46.436Z,5.40
2022-10-22T13:53:20.758Z,4.90
2022-10-22T13:55:47.745Z,5.40
2022-10-22T13:58:19.977Z,4.80
2022-10-22T14:00:51.084Z,5.77
2022-10-22T14:03:21.392Z,5.73
2022-10-22T14:05:48.804Z,6.03
2022-10-22T14:08:20.768Z,6.63
2022-10-22T14:10:47.809Z,4.57
2022-10-22T14:13:17.774Z,3.17
2022-10-22T14:15:46.454Z,4.30
2022-10-22T14:18:24.005Z,3.50
2022-10-22T14:21:04.706Z,5.37
2022-10-22T14:23:32.647Z,10.47
2022-10-22T14:26:00.658Z,1.83
2022-10-22T14:28:27.649Z,5.73
2022-10-22T14:30:55.357Z,3.37
2022-10-22T14:33:30.362Z,5.97
2022-10-22T14:35:59.282Z,4.07
2022-10-22T14:38:26.154Z,5.37
2022-10-22T14:40:52.940Z,3.70
2022-10-22T14:43:25.644Z,3.37
2022-10-22T14:45:52.952Z,5.07
2022-10-22T14:50:51.392Z,4.03
2022-10-22T14:53:18.172Z,2.57
2022-10-22T14:55:47.059Z,3.17
2022-10-22T14:58:14.169Z,5.13
2022-10-22T15:00:42.062Z,3.53
2022-10-22T15:03:09.186Z,1.87
2022-10-22T15:05:36.422Z,7.30
2022-10-22T15:08:03.488Z,4.17
2022-10-22T15:10:30.187Z,2.73
2022-10-22T15:12:56.819Z,2.90
2022-10-22T15:15:24.562Z,6.27
2022-10-22T15:17:52.311Z,4.57
2022-10-22T15:20:20.456Z,4.53
2022-10-22T15:22:47.152Z,3.83
2022-10-22T15:25:14.554Z,4.27
2022-10-22T15:27:41.222Z,4.33
2022-10-22T15:30:08.404Z,3.07
2022-10-22T15:32:35.235Z,7.90
2022-10-22T15:35:02.191Z,5.43
2022-10-22T15:37:28.864Z,4.77
2022-10-22T15:39:55.557Z,4.27
2022-10-22T15:42:23.224Z,8.40
2022-10-22T15:44:56.725Z,7.73
2022-10-22T15:47:25.213Z,6.67
2022-10-22T15:49:51.891Z,10.00
2022-10-22T15:52:18.788Z,11.37
2022-10-22T15:54:45.568Z,4.13
2022-10-22T15:57:12.253Z,8.63
2022-10-22T15:59:38.998Z,4.33
2022-10-22T16:02:07.247Z,4.07
2022-10-22T16:04:33.917Z,9.63
2022-10-22T16:07:00.893Z,6.27
2022-10-22T16:09:27.781Z,11.37
2022-10-22T16:11:55.824Z,10.03
2022-10-22T16:14:23.987Z,14.30
2022-10-22T16:16:52.903Z,9.67
2022-10-22T16:19:21.513Z,6.63
2022-10-22T16:21:53.315Z,12.40
2022-10-22T16:24:20.729Z,8.90
2022-10-22T16:26:48.371Z,12.77
2022-10-22T16:29:15.233Z,9.97
2022-10-22T16:31:43.567Z,10.97
2022-10-22T16:34:10.759Z,8.73
2022-10-22T16:36:38.247Z,3.03
2022-10-22T16:39:06.804Z,15.93
2022-10-22T16:41:36.878Z,9.80
2022-10-22T16:44:06.465Z,11.23
2022-10-22T16:46:33.673Z,14.03
2022-10-22T16:49:00.487Z,4.60
2022-10-22T16:51:28.306Z,9.80
2022-10-22T16:53:56.872Z,9.30
2022-10-22T16:56:24.522Z,10.63
2022-10-22T16:58:53.766Z,8.67
2022-10-22T17:01:25.805Z,7.13
2022-10-22T17:03:54.596Z,12.47
2022-10-22T17:06:23.566Z,9.73
2022-10-22T17:08:50.375Z,6.13
2022-10-22T17:11:20.530Z,7.67
2022-10-22T17:13:49.528Z,9.20
2022-10-22T17:16:19.756Z,9.63
2022-10-22T17:18:47.827Z,11.83
2022-10-22T17:21:15.832Z,5.63
2022-10-22T17:23:42.827Z,10.67
2022-10-22T17:26:17.847Z,13.60
2022-10-22T17:28:44.905Z,8.87
2022-10-22T17:31:16.616Z,13.70
2022-10-22T17:33:43.405Z,10.93
2022-10-22T17:36:12.614Z,4.67
2022-10-22T17:38:43.027Z,8.67
2022-10-22T17:41:14.897Z,6.27
2022-10-22T17:43:41.607Z,9.17
2022-10-22T17:46:25.160Z,10.83
2022-10-22T17:48:53.641Z,9.63
2022-10-22T17:51:20.939Z,8.17
2022-10-22T17:53:50.029Z,12.47
2022-10-22T17:56:21.743Z,7.53
2022-10-22T17:58:48.589Z,8.23
2022-10-22T18:01:26.491Z,15.13
2022-10-22T18:03:54.917Z,9.43
2022-10-22T18:06:22.225Z,10.23
2022-10-22T18:08:49.107Z,11.70
2022-10-22T18:11:21.134Z,7.30
2022-10-22T18:13:52.063Z,11.53
2022-10-22T18:16:19.635Z,5.83
2022-10-22T18:18:52.922Z,11.67
2022-10-22T18:21:20.987Z,10.03
2022-10-22T18:23:47.667Z,32.50
2022-10-22T18:26:15.306Z,37.10
2022-10-22T18:28:42.095Z,13.43
2022-10-22T18:31:12.218Z,9.40
2022-10-22T18:33:40.465Z,23.53
2022-10-22T18:36:14.425Z,9.10
2022-10-22T18:38:41.206Z,13.97
2022-10-22T18:41:09.513Z,10.47
2022-10-22T18:43:36.695Z,12.77
2022-10-22T18:46:06.809Z,7.40
2022-10-22T18:48:35.293Z,6.90
2022-10-22T18:51:07.101Z,9.17
2022-10-22T18:53:35.152Z,7.80
2022-10-22T18:56:05.463Z,11.80
2022-10-22T18:58:36.338Z,5.33
2022-10-22T19:01:11.326Z,6.13
2022-10-22T19:03:38.335Z,8.90
2022-10-22T19:06:05.249Z,8.40
2022-10-22T19:08:34.302Z,7.53
2022-10-22T19:11:01.560Z,6.73
2022-10-22T19:13:28.437Z,6.63
2022-10-22T19:16:01.428Z,3.77
2022-10-22T19:18:28.121Z,7.40
2022-10-22T19:20:59.772Z,5.57
2022-10-22T19:23:27.847Z,6.73
2022-10-22T19:26:06.614Z,12.67
2022-10-22T19:28:33.971Z,10.40
2022-10-22T19:31:00.727Z,15.33
2022-10-22T19:33:27.955Z,9.63
2022-10-22T19:35:54.697Z,9.73
2022-10-22T19:38:21.385Z,14.67
2022-10-22T19:40:48.123Z,12.70
2022-10-22T19:43:18.197Z,8.70
2022-10-22T19:45:45.809Z,11.07
2022-10-22T19:48:12.517Z,6.53
2022-10-22T19:50:39.195Z,9.60
2022-10-22T19:53:05.922Z,5.93
2022-10-22T19:55:32.585Z,10.90
2022-10-22T19:57:59.241Z,9.97
2022-10-22T20:00:26.298Z,10.33
2022-10-22T20:02:52.987Z,7.70
2022-10-22T20:05:19.730Z,9.97
2022-10-22T20:07:46.462Z,8.03
2022-10-22T20:10:13.187Z,5.77
2022-10-22T20:12:39.937Z,11.80
2022-10-22T20:15:07.204Z,8.40
2022-10-22T20:17:34.140Z,10.27
2022-10-22T20:20:00.819Z,6.67
2022-10-22T20:22:27.509Z,8.37
2022-10-22T20:24:54.351Z,6.40
2022-10-22T20:27:21.445Z,9.53
2022-10-22T20:29:48.241Z,12.83
2022-10-22T20:32:15.026Z,6.53
2022-10-22T20:34:42.437Z,10.23
2022-10-22T20:37:09.224Z,12.17
2022-10-22T20:39:36.009Z,9.80
2022-10-22T20:42:02.885Z,7.63
2022-10-22T20:44:29.568Z,4.93
2022-10-22T20:49:27.892Z,6.97
2022-10-22T20:51:54.606Z,13.43
2022-10-22T20:54:21.322Z,7.47
2022-10-22T20:56:48.216Z,7.63
2022-10-22T20:59:15.670Z,8.63
2022-10-22T21:01:50.087Z,9.60
2022-10-22T21:04:19.592Z,8.70
2022-10-22T21:06:48.393Z,11.90
2022-10-22T21:09:16.255Z,13.40
2022-10-22T21:11:43.747Z,18.77
2022-10-22T21:14:12.516Z,10.13
2022-10-22T21:16:49.223Z,14.70
2022-10-22T21:19:19.797Z,7.93
2022-10-22T21:21:46.554Z,8.93
2022-10-22T21:24:13.577Z,6.47
2022-10-22T21:26:42.108Z,8.87
2022-10-22T21:29:09.968Z,9.67
2022-10-22T21:31:37.530Z,11.30
2022-10-22T21:34:04.262Z,9.47
2022-10-22T21:36:31.185Z,8.93
2022-10-22T21:38:57.856Z,8.13
2022-10-22T21:41:24.790Z,8.63
2022-10-22T21:43:52.102Z,8.83
2022-10-22T21:46:21.490Z,15.13
2022-10-22T21:49:01.057Z,11.40
2022-10-22T21:51:30.316Z,14.17
2022-10-22T21:53:57.301Z,12.63
2022-10-22T21:56:29.966Z,12.57
2022-10-22T21:58:56.681Z,10.43
2022-10-22T22:01:24.003Z,12.10
2022-10-22T22:03:52.422Z,8.87
2022-10-22T22:06:22.022Z,11.43
2022-10-22T22:08:49.928Z,10.50
2022-10-22T22:11:18.699Z,10.07
2022-10-22T22:13:45.641Z,17.40
2022-10-22T22:16:15.760Z,10.60
2022-10-22T22:18:42.808Z,8.30
2022-10-22T22:21:13.142Z,8.30
2022-10-22T22:23:42.125Z,8.83
2022-10-22T22:26:09.684Z,10.23
2022-10-22T22:28:36.904Z,6.87
2022-10-22T22:31:13.319Z,8.77
2022-10-22T22:33:40.054Z,5.23
2022-10-22T22:36:06.984Z,10.20
2022-10-22T22:38:33.702Z,5.60
2022-10-22T22:41:00.933Z,11.30
2022-10-22T22:43:27.817Z,7.37
2022-10-22T22:46:08.388Z,10.77
2022-10-22T22:48:35.405Z,8.73
2022-10-22T22:51:04.037Z,5.53
2022-10-22T22:53:31.135Z,4.87
2022-10-22T22:56:13.434Z,9.93
2022-10-22T22:58:41.020Z,6.00
2022-10-22T23:01:20.410Z,6.53
2022-10-22T23:03:53.494Z,7.20
2022-10-22T23:06:20.269Z,8.43
2022-10-22T23:08:50.159Z,3.63
2022-10-22T23:11:17.562Z,4.77
2022-10-22T23:13:44.780Z,10.77
2022-10-22T23:16:20.302Z,7.40
2022-10-22T23:18:48.061Z,10.67
2022-10-22T23:21:20.310Z,5.23
2022-10-22T23:23:49.993Z,7.03
2022-10-22T23:26:23.511Z,7.90
2022-10-22T23:28:50.589Z,4.73
2022-10-22T23:31:20.041Z,4.53
2022-10-22T23:33:47.321Z,6.60
2022-10-22T23:36:14.180Z,7.87
2022-10-22T23:38:41.596Z,7.03
2022-10-22T23:41:08.950Z,6.93
2022-10-22T23:43:37.574Z,7.43
2022-10-22T23:46:06.213Z,8.30
2022-10-22T23:48:32.961Z,15.50
2022-10-22T23:51:14.542Z,9.93
2022-10-22T23:53:42.311Z,9.47
2022-10-22T23:56:15.214Z,5.03
2022-10-22T23:58:42.454Z,10.97
